Time;durP1;ratioP1;P1;durP2;ratioP2;P2;SDS_P1;SDS_P2;PMS_P1;PMS_P2;Temp;Humidity;BMP_temperature;BMP_pressure;BME280_temperature;BME280_humidity;BME280_pressure;Samples;Min_cycle;Max_cycle;Signal;HPM_P1;HPM_P2
2022/12/28 00:01:15;;;;;;;16.33;7.10;;;;;;;2.62;67.12;98971.59;4832019;29;20030;-93
2022/12/28 00:03:42;;;;;;;13.25;6.10;;;;;;;2.32;67.34;98930.84;4845522;29;20026;-92
2022/12/28 00:06:10;;;;;;;14.93;7.72;;;;;;;2.52;67.13;98958.91;4821098;29;20077;-92
2022/12/28 00:08:39;;;;;;;11.88;7.03;;;;;;;2.80;67.23;98995.34;4821349;29;20029;-91
2022/12/28 00:11:13;;;;;;;15.73;7.05;;;;;;;2.53;66.55;98949.72;4831022;29;20066;-91
2022/12/28 00:13:40;;;;;;;14.48;7.13;;;;;;;3.09;66.67;99033.41;4855140;29;20030;-91
2022/12/28 00:16:18;;;;;;;11.73;6.68;;;;;;;2.90;66.59;98995.34;4839899;29;20046;-92
2022/12/28 00:18:44;;;;;;;14.50;6.80;;;;;;;2.88;66.89;98994.81;4821395;29;20058;-91
2022/12/28 00:21:11;;;;;;;13.57;6.72;;;;;;;2.72;66.68;98969.72;4798314;29;20054;-95
2022/12/28 00:23:38;;;;;;;15.98;6.72;;;;;;;2.80;66.85;98977.25;4814523;29;20047;-91
2022/12/28 00:26:12;;;;;;;16.50;7.43;;;;;;;2.77;66.48;98953.50;4789399;29;20058;-92
2022/12/28 00:28:39;;;;;;;14.43;7.28;;;;;;;3.01;66.20;98988.03;4807013;29;20038;-91
2022/12/28 00:31:06;;;;;;;16.38;6.95;;;;;;;2.87;66.10;98949.97;4796073;29;20469;-92
2022/12/28 00:33:32;;;;;;;13.40;6.70;;;;;;;3.09;66.38;99011.00;4803157;29;20043;-91
2022/12/28 00:36:00;;;;;;;14.25;8.35;;;;;;;3.19;66.43;99000.19;4798662;29;20054;-95
2022/12/28 00:38:30;;;;;;;17.23;7.30;;;;;;;2.83;66.33;98947.00;4815714;29;20034;-91
2022/12/28 00:40:58;;;;;;;16.77;7.72;;;;;;;2.82;66.44;98955.41;4830691;29;20079;-92
2022/12/28 00:43:25;;;;;;;20.23;7.43;;;;;;;2.98;66.56;98965.09;4812914;29;20057;-92
2022/12/28 00:45:52;;;;;;;15.68;7.53;;;;;;;2.77;66.69;98933.78;4827947;29;20757;-91
2022/12/28 00:48:18;;;;;;;12.90;7.40;;;;;;;2.77;66.93;98942.69;4796220;29;20156;-94
2022/12/28 00:50:45;;;;;;;11.85;6.82;;;;;;;3.04;66.89;98977.50;4812712;29;20134;-94
2022/12/28 00:53:12;;;;;;;13.48;7.00;;;;;;;2.75;66.49;98933.28;4832663;29;20038;-94
2022/12/28 00:55:39;;;;;;;14.73;6.97;;;;;;;2.83;66.55;98943.50;4806443;29;20049;-95
2022/12/28 00:58:06;;;;;;;11.75;6.93;;;;;;;2.72;66.97;98952.72;4817265;29;20045;-94
2022/12/28 01:00:33;;;;;;;12.15;6.55;;;;;;;2.84;66.84;98964.03;4816182;29;20134;-95
2022/12/28 01:03:00;;;;;;;16.35;6.63;;;;;;;2.57;66.54;98913.03;4832453;29;20049;-95
2022/12/28 01:05:26;;;;;;;11.98;6.53;;;;;;;2.66;66.77;98926.78;4814309;29;20424;-92
2022/12/28 01:07:52;;;;;;;10.48;5.70;;;;;;;2.74;66.28;98927.03;4846145;29;20058;-91
2022/12/28 01:10:20;;;;;;;15.45;7.30;;;;;;;2.68;66.52;98911.13;4819812;29;20046;-92
2022/12/28 01:12:46;;;;;;;;;;;;;;;3.13;66.53;98977.78;4816619;29;20048;-94
2022/12/28 01:15:12;;;;;;;17.15;6.38;;;;;;;3.23;66.44;98979.66;4815084;29;19936;-92
2022/12/28 01:17:40;;;;;;;14.00;7.82;;;;;;;2.91;65.81;98915.94;4814457;29;20132;-92
2022/12/28 01:20:07;;;;;;;16.70;8.20;;;;;;;2.87;65.76;98917.59;4800143;29;20106;-91
2022/12/28 01:22:34;;;;;;;17.30;8.15;;;;;;;2.84;66.35;98918.13;4836785;29;20037;-92
2022/12/28 01:25:00;;;;;;;15.02;8.00;;;;;;;3.18;66.26;98958.03;4835090;29;20042;-91
2022/12/28 01:27:29;;;;;;;15.30;7.57;;;;;;;2.81;66.24;98913.28;4817930;29;20409;-91
2022/12/28 01:29:56;;;;;;;17.63;8.90;;;;;;;2.76;66.19;98884.41;4833875;29;20141;-92
2022/12/28 01:32:22;;;;;;;17.88;8.95;;;;;;;2.88;65.91;98903.03;4848784;29;20049;-93
2022/12/28 01:34:48;;;;;;;17.75;9.43;;;;;;;3.04;66.04;98928.88;4829589;29;20041;-92
2022/12/28 01:37:15;;;;;;;16.83;8.80;;;;;;;3.05;65.86;98922.44;4844701;29;20050;-93
2022/12/28 01:39:41;;;;;;;19.45;10.00;;;;;;;3.20;66.04;98947.78;4847129;29;20078;-91
2022/12/28 01:42:15;;;;;;;19.45;10.45;;;;;;;2.77;66.06;98877.91;4830851;29;20046;-95
2022/12/28 01:44:49;;;;;;;19.35;9.43;;;;;;;3.06;66.03;98917.84;4815642;29;20050;-92
2022/12/28 01:47:23;;;;;;;16.40;8.80;;;;;;;3.02;65.53;98900.56;4819806;29;20042;-96
2022/12/28 01:49:58;;;;;;;18.25;9.40;;;;;;;3.02;65.68;98905.97;4861128;29;20508;-91
2022/12/28 01:52:33;;;;;;;17.63;8.95;;;;;;;3.31;65.54;98935.84;4875634;29;20032;-92
2022/12/28 01:55:10;;;;;;;18.50;9.10;;;;;;;3.16;65.56;98911.59;4869081;29;20060;-91
2022/12/28 01:57:43;;;;;;;16.27;8.93;;;;;;;2.84;65.58;98866.84;4853251;29;20032;-91
2022/12/28 02:00:13;;;;;;;17.25;8.60;;;;;;;2.97;65.42;98877.06;4804544;29;20050;-95
2022/12/28 02:02:50;;;;;;;17.88;8.68;;;;;;;2.79;65.40;98864.97;4798745;29;20054;-93
2022/12/28 02:05:20;;;;;;;19.27;8.82;;;;;;;3.11;65.37;98923.22;4798093;29;20579;-93
2022/12/28 02:08:07;;;;;;;14.45;8.57;;;;;;;3.03;66.00;98915.69;4751572;29;20101;-91
2022/12/28 02:10:35;;;;;;;19.75;9.02;;;;;;;2.85;65.88;98892.78;4809823;29;20096;-94
2022/12/28 02:13:03;;;;;;;14.45;7.70;;;;;;;2.87;65.91;98909.50;4814409;29;20486;-95
2022/12/28 02:15:29;;;;;;;16.13;8.82;;;;;;;2.94;65.88;98907.31;4812930;29;20074;-90
2022/12/28 02:17:57;;;;;;;18.63;9.00;;;;;;;2.82;66.35;98893.31;4811840;29;20042;-90
2022/12/28 02:20:26;;;;;;;;;;;;;;;2.82;66.17;98925.72;4850057;29;20034;-92
2022/12/28 02:22:52;;;;;;;17.73;9.23;;;;;;;2.97;66.19;98916.75;4834008;29;19912;-93
2022/12/28 02:26:13;;;;;;;17.33;8.70;;;;;;;2.87;65.62;98895.19;4802220;29;20053;-96
2022/12/28 02:28:54;;;;;;;19.15;9.52;;;;;;;2.95;65.49;98891.94;4779925;29;20051;-93
2022/12/28 02:31:33;;;;;;;18.05;9.25;;;;;;;2.52;65.37;98837.50;4810434;29;20494;-95
2022/12/28 02:34:23;;;;;;;17.92;9.32;;;;;;;3.01;65.30;98928.63;4762547;30;20059;-92
2022/12/28 02:36:58;;;;;;;18.35;8.30;;;;;;;3.11;65.15;98934.00;4766605;29;20330;-92
2022/12/28 02:39:37;;;;;;;22.67;9.65;;;;;;;2.99;65.21;98907.31;4811995;29;20051;-92
2022/12/28 02:42:09;;;;;;;19.70;9.68;;;;;;;3.12;64.68;98921.34;4797061;29;20123;-91
2022/12/28 02:50:07;;;;;;;17.13;9.18;;;;;;;2.64;65.19;98861.47;4780189;29;20046;-91
2022/12/28 02:52:41;;;;;;;18.13;9.23;;;;;;;2.78;65.43;98897.63;4779655;29;20050;-92
2022/12/28 02:58:26;;;;;;;16.88;8.50;;;;;;;2.82;64.80;98894.13;4780530;29;20536;-92
2022/12/28 03:00:55;;;;;;;15.30;8.25;;;;;;;2.87;65.34;98925.69;4849574;29;20053;-93
2022/12/28 03:03:47;;;;;;;17.20;9.30;;;;;;;2.61;65.15;98881.72;4837484;29;20045;-92
2022/12/28 03:09:57;;;;;;;15.85;8.63;;;;;;;2.78;64.88;98911.13;4818524;29;20048;-91
2022/12/28 03:12:33;;;;;;;18.17;8.70;;;;;;;2.45;65.45;98878.25;4838516;29;20047;-95
2022/12/28 03:15:06;;;;;;;17.73;8.98;;;;;;;2.77;65.62;98925.69;4839498;29;20053;-96
2022/12/28 03:31:41;;;;;;;19.65;9.55;;;;;;;2.65;65.58;98888.22;4847345;29;20045;-94
2022/12/28 03:34:11;;;;;;;19.92;9.15;;;;;;;2.62;65.40;98879.84;4837937;29;20041;-93
2022/12/28 03:37:24;;;;;;;22.17;9.70;;;;;;;2.85;65.38;98913.53;4840234;29;20104;-92
2022/12/28 03:40:14;;;;;;;20.80;10.07;;;;;;;2.35;65.68;98851.25;4835524;29;20081;-92
2022/12/28 03:45:47;;;;;;;19.83;10.30;;;;;;;2.98;65.13;98911.09;4840811;29;20046;-91
2022/12/28 03:48:16;;;;;;;22.45;9.98;;;;;;;2.99;65.14;98914.63;4835350;29;20747;-96
2022/12/28 03:50:47;;;;;;;20.45;10.80;;;;;;;2.58;64.35;98834.53;4833885;29;20044;-93
2022/12/28 03:53:23;;;;;;;24.40;11.00;;;;;;;2.90;64.63;98889.25;4846641;29;20042;-90
2022/12/28 03:56:12;;;;;;;17.13;9.70;;;;;;;2.92;64.81;98901.41;4831460;29;20046;-94
2022/12/28 03:58:42;;;;;;;17.60;9.30;;;;;;;2.59;64.65;98833.44;4834826;29;20148;-93
2022/12/28 04:01:09;;;;;;;22.58;9.73;;;;;;;3.00;64.56;98900.03;4830949;29;20078;-93
2022/12/28 04:03:38;;;;;;;19.75;9.48;;;;;;;2.95;64.39;98884.66;4833230;29;20121;-93
2022/12/28 04:06:06;;;;;;;21.52;9.82;;;;;;;2.32;64.10;98798.69;4817566;29;20025;-92
2022/12/28 04:08:34;;;;;;;18.13;9.35;;;;;;;2.73;64.32;98865.25;4828281;29;20230;-90
2022/12/28 04:11:00;;;;;;;;;;;;;;;3.05;64.03;98900.81;4827758;29;20042;-89
2022/12/28 04:13:32;;;;;;;14.80;8.32;;;;;;;2.68;64.13;98857.16;4832089;29;19924;-92
2022/12/28 04:16:16;;;;;;;18.33;9.45;;;;;;;2.62;64.37;98825.88;4856446;29;20041;-88
2022/12/28 04:18:43;;;;;;;18.65;9.50;;;;;;;3.04;63.88;98890.28;4827002;29;20042;-91
2022/12/28 04:21:11;;;;;;;17.92;8.77;;;;;;;2.78;63.86;98852.56;4831451;29;20045;-87
2022/12/28 04:23:41;;;;;;;18.75;9.73;;;;;;;3.13;63.79;98893.25;4841967;29;20042;-90
2022/12/28 04:26:26;;;;;;;15.75;7.97;;;;;;;2.44;63.72;98790.28;4863976;29;20049;-89
2022/12/28 04:29:00;;;;;;;18.08;8.93;;;;;;;3.12;63.80;98892.44;4845222;29;20062;-93
2022/12/28 04:31:55;;;;;;;18.48;9.30;;;;;;;3.18;63.66;98891.34;4889013;24;20038;-91
2022/12/28 04:34:22;;;;;;;17.15;8.50;;;;;;;2.88;63.51;98843.63;4834688;29;20056;-93
2022/12/28 04:36:56;;;;;;;18.88;9.05;;;;;;;2.90;63.75;98852.25;4803544;29;20066;-91
2022/12/28 04:39:25;;;;;;;16.75;8.98;;;;;;;2.85;63.49;98832.56;4833868;29;20125;-94
2022/12/28 04:41:51;;;;;;;17.33;9.10;;;;;;;2.96;63.34;98850.38;4817232;29;20165;-93
2022/12/28 04:44:24;;;;;;;17.63;9.15;;;;;;;2.53;63.52;98771.66;4803294;29;20126;-93
2022/12/28 04:46:50;;;;;;;19.77;9.23;;;;;;;2.88;63.43;98846.34;4800984;29;20058;-87
2022/12/28 04:49:16;;;;;;;21.13;10.90;;;;;;;3.05;63.79;98863.03;4800748;29;20077;-93
2022/12/28 04:51:42;;;;;;;20.65;10.23;;;;;;;3.07;63.55;98862.75;4814859;29;20148;-94
2022/12/28 04:54:14;;;;;;;18.25;9.63;;;;;;;3.01;63.60;98866.53;4813837;29;20050;-91
2022/12/28 04:56:40;;;;;;;20.77;10.55;;;;;;;2.90;63.58;98846.84;4830730;29;20022;-90
2022/12/28 04:59:06;;;;;;;25.08;11.05;;;;;;;2.84;63.60;98837.16;4812532;29;20061;-95
2022/12/28 05:01:33;;;;;;;;;;;;;;;3.12;63.61;98870.03;4800889;29;20038;-91
2022/12/28 05:04:00;;;;;;;23.77;11.98;;;;;;;2.74;63.92;98816.38;4802587;29;19911;-92
2022/12/28 05:06:28;;;;;;;24.25;13.38;;;;;;;2.79;64.05;98835.28;4815282;29;20050;-90
2022/12/28 05:08:55;;;;;;;28.90;14.18;;;;;;;2.64;64.15;98826.41;4800668;29;20049;-88
2022/12/28 05:11:27;;;;;;;27.35;13.73;;;;;;;2.97;64.54;98868.97;4816690;29;20053;-90
2022/12/28 05:13:55;;;;;;;34.28;15.13;;;;;;;2.58;64.23;98804.84;4847467;29;20436;-91
2022/12/28 05:16:27;;;;;;;28.05;14.52;;;;;;;2.61;64.42;98816.16;4850031;29;20097;-91
2022/12/28 05:18:56;;;;;;;27.27;14.68;;;;;;;2.53;64.67;98818.31;4838676;29;20049;-92
2022/12/28 05:21:25;;;;;;;28.52;14.35;;;;;;;2.32;64.52;98769.00;4837362;29;20021;-93
2022/12/28 05:23:56;;;;;;;26.67;14.52;;;;;;;2.80;64.58;98847.69;4825827;29;20045;-91
2022/12/28 05:26:29;;;;;;;32.47;15.60;;;;;;;2.91;64.05;98844.97;4850941;29;20128;-95
2022/12/28 05:29:00;;;;;;;33.20;16.55;;;;;;;2.72;64.36;98828.56;4848870;29;20057;-90
2022/12/28 05:31:26;;;;;;;28.50;14.73;;;;;;;3.13;64.29;98882.44;4828323;29;20058;-91
2022/12/28 05:33:53;;;;;;;31.27;15.55;;;;;;;2.96;63.81;98850.38;4813186;29;20055;-90
2022/12/28 05:36:26;;;;;;;30.20;14.68;;;;;;;3.13;63.75;98874.34;4835399;29;20038;-91
2022/12/28 05:39:05;;;;;;;29.33;15.27;;;;;;;3.26;63.56;98885.38;4818309;29;20133;-91
2022/12/28 05:41:31;;;;;;;31.55;15.52;;;;;;;2.99;63.55;98850.63;4844889;29;20038;-91
2022/12/28 05:44:22;;;;;;;27.17;13.80;;;;;;;3.20;63.54;98874.84;4827856;23;20198;-91
2022/12/28 05:46:49;;;;;;;24.80;13.02;;;;;;;2.50;63.35;98789.19;4873226;29;20064;-93
2022/12/28 05:49:15;;;;;;;17.13;10.07;;;;;;;2.86;63.26;98855.78;4854500;29;20132;-90
2022/12/28 05:51:41;;;;;;;17.48;10.10;;;;;;;2.85;63.62;98860.38;4850097;29;20041;-90
2022/12/28 05:54:07;;;;;;;18.02;10.50;;;;;;;2.66;63.16;98827.75;4874754;29;20127;-89
2022/12/28 05:56:33;;;;;;;17.35;9.68;;;;;;;2.90;63.08;98859.56;4856916;29;20503;-89
2022/12/28 05:59:03;;;;;;;21.92;10.68;;;;;;;2.76;63.20;98845.81;4888053;29;20041;-87
2022/12/28 06:01:38;;;;;;;20.00;10.55;;;;;;;2.81;63.20;98845.78;4858892;29;20041;-93
2022/12/28 06:04:07;;;;;;;19.60;10.48;;;;;;;2.87;62.73;98877.09;4855075;29;20127;-92
2022/12/28 06:06:34;;;;;;;23.90;10.60;;;;;;;2.43;63.18;98812.94;4854245;29;20070;-89
2022/12/28 06:09:28;;;;;;;23.10;10.85;;;;;;;3.05;63.15;98894.63;4885098;29;20041;-94
2022/12/28 06:12:20;;;;;;;20.40;10.88;;;;;;;3.07;63.23;98905.94;4859595;29;20131;-89
2022/12/28 06:14:47;;;;;;;20.48;11.13;;;;;;;2.93;63.24;98884.09;4869870;29;20055;-92
2022/12/28 06:17:13;;;;;;;23.80;10.68;;;;;;;2.84;62.92;98864.13;4854620;29;20065;-88
2022/12/28 06:19:39;;;;;;;18.55;10.40;;;;;;;2.89;62.75;98855.25;4890028;29;20041;-90
2022/12/28 06:22:05;;;;;;;21.05;10.77;;;;;;;3.15;62.86;98891.91;4904135;29;20021;-88
2022/12/28 06:24:31;;;;;;;21.40;11.75;;;;;;;2.95;62.71;98868.47;4908461;29;20029;-92
2022/12/28 06:26:57;;;;;;;20.52;11.32;;;;;;;3.15;62.84;98894.59;4892764;29;20092;-93
2022/12/28 06:32:31;;;;;;;21.17;11.43;;;;;;;3.26;62.52;98900.78;4939602;24;20116;-88
2022/12/28 06:34:57;;;;;;;21.90;11.20;;;;;;;2.85;62.38;98827.16;4871090;29;20033;-90
2022/12/28 06:37:33;;;;;;;20.63;10.57;;;;;;;2.56;62.97;98815.09;4885685;29;20101;-89
2022/12/28 06:40:02;;;;;;;19.08;11.32;;;;;;;2.75;62.92;98849.59;4865382;29;20053;-88
2022/12/28 06:42:29;;;;;;;23.38;11.18;;;;;;;2.88;63.47;98876.03;4881779;29;20080;-86
2022/12/28 06:44:55;;;;;;;20.83;10.38;;;;;;;2.84;63.29;98858.75;4866086;29;20049;-90
2022/12/28 06:47:21;;;;;;;18.98;10.32;;;;;;;2.99;62.90;98871.41;4850375;29;20152;-90
2022/12/28 06:49:50;;;;;;;21.35;11.77;;;;;;;2.94;63.04;98866.00;4896715;29;20096;-94
2022/12/28 06:52:17;;;;;;;22.13;11.43;;;;;;;2.83;62.78;98839.03;4865745;29;20419;-89
2022/12/28 06:55:08;;;;;;;19.63;10.50;;;;;;;3.25;62.47;98899.97;4849598;29;20052;-88
2022/12/28 06:57:43;;;;;;;25.90;14.48;;;;;;;2.79;63.10;98837.97;4849856;29;20045;-90
2022/12/28 07:00:16;;;;;;;22.27;11.68;;;;;;;2.76;63.11;98840.41;4882445;29;20105;-89
2022/12/28 07:02:57;;;;;;;21.63;11.98;;;;;;;2.74;63.15;98850.66;4865360;29;20056;-90
2022/12/28 07:05:23;;;;;;;20.05;10.93;;;;;;;2.84;63.09;98869.53;4915628;29;20029;-93
2022/12/28 07:07:50;;;;;;;21.95;11.80;;;;;;;3.10;63.43;98899.19;4850644;29;20057;-88
2022/12/28 07:10:16;;;;;;;20.80;10.88;;;;;;;2.87;63.47;98882.50;4863607;29;20078;-87
2022/12/28 07:12:42;;;;;;;21.10;11.18;;;;;;;2.78;63.26;98857.13;4871490;29;20464;-90
2022/12/28 07:15:08;;;;;;;19.60;10.85;;;;;;;2.80;63.12;98847.69;4853852;29;20049;-89
2022/12/28 07:17:35;;;;;;;23.17;12.43;;;;;;;3.05;63.17;98886.53;4882214;29;20056;-89
2022/12/28 07:20:01;;;;;;;26.10;12.15;;;;;;;3.08;62.99;98866.25;4896976;29;20053;-88
2022/12/28 07:22:29;;;;;;;24.90;12.43;;;;;;;3.03;62.73;98867.88;4884618;29;20538;-88
2022/12/28 07:25:16;;;;;;;;;;;;;;;3.37;62.92;98909.63;4899733;29;20022;-91
2022/12/28 07:27:56;;;;;;;32.90;13.35;;;;;;;3.16;62.63;98879.19;4783636;29;19909;-88
2022/12/28 07:30:22;;;;;;;23.95;13.80;;;;;;;2.94;62.96;98847.91;4783085;29;20059;-88
2022/12/28 07:32:57;;;;;;;28.80;14.82;;;;;;;3.21;62.91;98892.66;4784606;30;20031;-87
2022/12/28 07:35:23;;;;;;;30.45;14.02;;;;;;;3.10;62.90;98880.28;4781752;30;20035;-89
2022/12/28 07:37:49;;;;;;;28.50;14.23;;;;;;;3.04;62.51;98874.09;4797752;30;20079;-89
2022/12/28 07:40:15;;;;;;;29.83;13.40;;;;;;;3.11;62.79;98884.59;4765881;30;20043;-88
2022/12/28 07:43:08;;;;;;;23.92;12.93;;;;;;;3.02;62.87;98860.06;4755089;30;20169;-87
2022/12/28 07:46:27;;;;;;;26.33;13.75;;;;;;;3.45;62.52;98922.59;4757288;30;20056;-91
2022/12/28 07:49:49;;;;;;;27.70;14.32;;;;;;;3.41;62.67;98918.81;4757016;30;20058;-87
2022/12/28 07:52:40;;;;;;;28.45;12.63;;;;;;;3.46;62.35;98922.31;4770629;30;20052;-92
2022/12/28 07:55:12;;;;;;;28.10;13.43;;;;;;;3.29;62.55;98892.13;4770635;30;20496;-96
2022/12/28 07:57:38;;;;;;;27.42;14.30;;;;;;;3.38;62.38;98903.97;4768269;30;20048;-87
2022/12/28 08:00:06;;;;;;;25.92;14.25;;;;;;;3.19;62.61;98860.53;4754455;30;20052;-92
2022/12/28 08:03:00;;;;;;;23.52;12.75;;;;;;;3.40;62.56;98887.47;4844831;23;20077;-88
2022/12/28 08:05:34;;;;;;;26.45;12.88;;;;;;;3.42;62.28;98882.63;4845136;29;20041;-88
2022/12/28 08:08:04;;;;;;;;;;;;;;;3.61;62.17;98904.41;4863825;29;20511;-89
2022/12/28 08:10:30;;;;;;;27.33;12.98;;;;;;;3.37;61.94;98863.72;4839069;24;20371;-91
2022/12/28 08:12:58;;;;;;;28.30;12.75;;;;;;;3.12;62.40;98862.72;4897897;29;20041;-90
2022/12/28 08:15:24;;;;;;;25.95;12.65;;;;;;;3.47;62.01;98894.19;4868735;29;20108;-88
2022/12/28 08:18:04;;;;;;;30.90;14.70;;;;;;;3.46;62.34;98892.59;4897630;29;20651;-88
2022/12/28 08:20:31;;;;;;;31.92;14.50;;;;;;;3.44;62.22;98883.13;4863102;29;20823;-88
2022/12/28 08:22:57;;;;;;;32.42;15.13;;;;;;;3.49;62.01;98878.53;4863077;29;20101;-87
2022/12/28 08:25:23;;;;;;;36.00;13.82;;;;;;;3.47;61.49;98872.56;4863207;29;20502;-87
2022/12/28 08:27:50;;;;;;;33.75;14.10;;;;;;;3.50;61.46;98880.13;4864391;29;20044;-92
2022/12/28 08:30:16;;;;;;;;;;;;;;;3.71;61.45;98907.09;4880743;29;20511;-89
2022/12/28 08:32:43;;;;;;;34.10;13.38;;;;;;;3.45;61.12;98863.16;4874263;29;19919;-90
2022/12/28 08:35:09;;;;;;;27.90;12.73;;;;;;;3.52;61.43;98891.47;4881342;29;20502;-90
2022/12/28 08:37:35;;;;;;;28.38;12.57;;;;;;;3.34;61.24;98846.16;4898342;29;20044;-90
2022/12/28 08:40:05;;;;;;;24.75;12.35;;;;;;;3.67;60.99;98885.19;4851627;29;20140;-87
2022/12/28 08:42:59;;;;;;;26.02;12.45;;;;;;;3.81;60.88;98898.09;4871077;29;20075;-87
2022/12/28 08:45:26;;;;;;;27.20;13.23;;;;;;;3.71;61.11;98907.88;4875768;29;20102;-87
2022/12/28 08:47:53;;;;;;;34.97;14.68;;;;;;;3.52;61.17;98863.66;4864262;29;20053;-87
2022/12/28 08:50:19;;;;;;;31.80;12.88;;;;;;;3.25;60.78;98828.94;4859792;29;20045;-88
2022/12/28 08:52:45;;;;;;;26.23;13.40;;;;;;;3.70;61.26;98914.38;4849364;29;20136;-89
2022/12/28 08:55:11;;;;;;;30.40;13.07;;;;;;;3.49;61.05;98875.81;4895459;29;20045;-88
2022/12/28 08:57:41;;;;;;;31.15;13.55;;;;;;;3.44;60.99;98862.31;4880261;29;20043;-92
2022/12/28 09:00:09;;;;;;;29.90;14.75;;;;;;;3.54;61.39;98869.56;4883599;29;20040;-88
2022/12/28 09:02:36;;;;;;;;;;;;;;;3.73;60.97;98911.09;4887549;29;20060;-87
2022/12/28 09:05:02;;;;;;;32.10;14.20;;;;;;;3.35;61.54;98874.81;4861971;29;19927;-87
2022/12/28 09:07:28;;;;;;;36.13;15.20;;;;;;;3.36;61.69;98881.81;4885480;29;20052;-90
2022/12/28 09:10:05;;;;;;;31.02;14.57;;;;;;;3.51;61.68;98897.97;4855520;29;20140;-87
2022/12/28 09:12:33;;;;;;;45.90;17.08;;;;;;;3.65;61.66;98922.50;4856974;29;20056;-87
2022/12/28 09:14:59;;;;;;;41.88;15.57;;;;;;;3.58;61.64;98899.59;4868493;29;20021;-91
2022/12/28 09:17:28;;;;;;;49.92;16.00;;;;;;;3.74;61.56;98917.31;4875278;29;20052;-92
2022/12/28 09:19:54;;;;;;;43.95;15.98;;;;;;;3.55;61.12;98897.44;4876141;29;20519;-89
2022/12/28 09:22:23;;;;;;;31.63;15.65;;;;;;;2.99;61.26;98820.91;4869469;29;20100;-90
2022/12/28 09:24:52;;;;;;;47.53;16.73;;;;;;;3.34;61.96;98888.56;4870790;29;20052;-92
2022/12/28 09:27:18;;;;;;;43.55;17.00;;;;;;;3.32;61.96;98874.56;4863178;29;20028;-90
2022/12/28 09:29:44;;;;;;;44.95;15.77;;;;;;;3.60;61.95;98903.59;4872146;29;20093;-88
2022/12/28 09:32:23;;;;;;;33.83;13.02;;;;;;;3.05;61.39;98830.63;4889512;29;20025;-89
2022/12/28 09:35:03;;;;;;;26.65;10.20;;;;;;;3.25;60.57;98853.25;4874895;29;20048;-90
2022/12/28 09:37:29;;;;;;;26.35;11.02;;;;;;;3.58;60.84;98892.28;4857404;29;20045;-89
2022/12/28 09:39:59;;;;;;;40.42;13.32;;;;;;;3.44;60.89;98864.22;4873710;29;20033;-89
2022/12/28 09:42:28;;;;;;;33.92;12.63;;;;;;;3.78;61.32;98914.91;4868700;29;20049;-89
2022/12/28 09:45:08;;;;;;;34.40;14.10;;;;;;;3.80;61.21;98916.22;4889340;29;20048;-89
2022/12/28 09:47:37;;;;;;;31.55;14.68;;;;;;;3.78;61.34;98918.41;4887073;29;20041;-89
2022/12/28 09:50:28;;;;;;;27.85;14.30;;;;;;;3.61;61.77;98883.63;4878747;29;20116;-90
2022/12/28 09:53:18;;;;;;;28.10;14.15;;;;;;;3.90;61.29;98916.16;4901419;29;20073;-90
2022/12/28 09:56:26;;;;;;;23.80;11.50;;;;;;;3.73;60.55;98903.00;4904091;29;20049;-90
2022/12/28 09:58:53;;;;;;;27.50;11.95;;;;;;;3.35;60.72;98845.09;4870739;29;20139;-89
2022/12/28 10:01:25;;;;;;;28.67;10.38;;;;;;;3.62;60.18;98890.63;4883598;29;20085;-90
2022/12/28 10:03:59;;;;;;;23.80;10.68;;;;;;;3.57;60.02;98869.03;4869834;29;20033;-90
2022/12/28 10:06:28;;;;;;;27.60;10.80;;;;;;;3.42;60.47;98858.31;4884218;29;20056;-90
2022/12/28 10:11:39;;;;;;;24.98;10.40;;;;;;;3.72;60.46;98912.22;4856055;29;20064;-92
2022/12/28 10:14:21;;;;;;;21.95;11.30;;;;;;;3.74;61.35;98917.31;4855926;29;20060;-90
2022/12/28 10:16:48;;;;;;;21.52;11.20;;;;;;;3.45;61.10;98863.16;4853325;29;20045;-91
2022/12/28 10:19:25;;;;;;;21.75;10.52;;;;;;;3.81;60.86;98935.94;4867026;29;20045;-88
2022/12/28 10:22:02;;;;;;;21.83;11.20;;;;;;;3.46;60.68;98870.97;4892173;29;20029;-89
2022/12/28 10:24:29;;;;;;;22.90;11.70;;;;;;;3.80;61.25;98921.63;4854424;29;20041;-91
2022/12/28 10:26:57;;;;;;;26.17;11.38;;;;;;;3.73;61.27;98904.91;4870037;29;20045;-91
2022/12/28 10:29:25;;;;;;;26.67;13.25;;;;;;;3.79;61.09;98928.13;4863247;29;20427;-89
2022/12/28 10:32:03;;;;;;;;;;;;;;;3.71;61.17;98936.81;4854328;29;20104;-90
2022/12/28 10:34:32;;;;;;;22.33;11.90;;;;;;;3.75;61.38;98932.47;4856429;29;20023;-91
2022/12/28 10:37:14;;;;;;;26.33;12.48;;;;;;;3.52;61.19;98899.59;4870844;29;20056;-91
2022/12/28 10:39:58;;;;;;;25.73;12.27;;;;;;;3.70;61.32;98919.78;4874699;29;20036;-91
2022/12/28 10:42:31;;;;;;;24.90;12.45;;;;;;;3.63;61.57;98934.69;4874870;29;20135;-87
2022/12/28 10:45:04;;;;;;;24.00;12.77;;;;;;;3.33;61.78;98903.19;4886434;29;20113;-89
2022/12/28 10:47:40;;;;;;;21.73;12.45;;;;;;;3.52;61.58;98917.69;4862788;29;20057;-91
2022/12/28 10:50:38;;;;;;;23.70;12.90;;;;;;;3.17;62.90;98888.91;4873109;29;20095;-91
2022/12/28 10:53:17;;;;;;;23.70;11.80;;;;;;;3.46;62.94;98924.22;4868338;29;20136;-89
2022/12/28 10:55:43;;;;;;;23.38;11.40;;;;;;;3.39;62.45;98907.47;4869077;29;20052;-93
2022/12/28 10:58:21;;;;;;;23.50;11.73;;;;;;;3.62;61.80;98923.06;4877405;29;20105;-89
2022/12/28 11:01:01;;;;;;;23.20;13.13;;;;;;;3.46;62.47;98916.91;4876322;29;20094;-94
2022/12/28 11:03:36;;;;;;;32.08;13.82;;;;;;;3.22;63.62;98914.00;4858948;29;20076;-91
2022/12/28 11:06:18;;;;;;;32.07;15.40;;;;;;;3.11;63.46;98904.31;4872537;29;20127;-91
2022/12/28 11:08:59;;;;;;;30.25;15.35;;;;;;;3.27;63.14;98908.59;4868959;29;20048;-91
2022/12/28 11:11:26;;;;;;;35.45;15.02;;;;;;;3.36;63.32;98914.25;4868777;29;20104;-91
2022/12/28 11:14:14;;;;;;;33.23;16.73;;;;;;;3.25;63.34;98899.16;4854920;29;20045;-90
2022/12/28 11:16:41;;;;;;;39.53;15.73;;;;;;;3.33;63.46;98909.38;4870907;29;20988;-90
2022/12/28 11:19:12;;;;;;;34.08;16.77;;;;;;;3.63;63.22;98921.97;4857619;29;20041;-90
2022/12/28 11:21:40;;;;;;;34.78;16.13;;;;;;;3.20;62.89;98885.66;4863602;29;20060;-94
2022/12/28 11:24:31;;;;;;;32.42;16.45;;;;;;;3.11;62.73;98863.00;4880889;29;20101;-95
2022/12/28 11:27:05;;;;;;;35.55;15.63;;;;;;;3.17;63.07;98864.59;4862756;29;20079;-91
2022/12/28 11:29:31;;;;;;;31.77;16.08;;;;;;;3.29;63.11;98870.50;4867628;29;20135;-91
2022/12/28 11:32:04;;;;;;;36.67;15.77;;;;;;;3.35;62.66;98892.91;4867657;29;20508;-93
2022/12/28 11:34:31;;;;;;;34.85;16.70;;;;;;;3.14;63.68;98906.47;4876647;29;20093;-90
2022/12/28 11:36:57;;;;;;;33.13;16.23;;;;;;;3.10;64.33;98893.78;4859779;29;20583;-92
2022/12/28 11:39:28;;;;;;;67.78;22.55;;;;;;;3.53;63.80;98935.53;4882617;29;20113;-91
2022/12/28 11:41:55;;;;;;;96.93;30.00;;;;;;;3.23;63.65;98904.81;4852486;29;20049;-91
2022/12/28 11:44:43;;;;;;;99.63;31.40;;;;;;;3.24;63.66;98903.72;4866759;29;20120;-90
2022/12/28 11:47:15;;;;;;;83.30;31.05;;;;;;;3.62;63.40;98938.47;4877746;29;20063;-93
2022/12/28 11:49:43;;;;;;;75.72;27.55;;;;;;;3.68;63.05;98932.78;4886683;29;20048;-91
2022/12/28 11:52:15;;;;;;;54.88;23.27;;;;;;;3.52;63.74;98937.41;4868502;29;20037;-90
2022/12/28 11:54:59;;;;;;;69.80;26.67;;;;;;;3.36;63.43;98883.72;4888691;29;20076;-89
2022/12/28 11:57:40;;;;;;;60.72;22.92;;;;;;;3.66;63.29;98926.81;4894865;29;20052;-89
2022/12/28 12:00:15;;;;;;;43.08;18.65;;;;;;;3.74;62.81;98937.06;4872512;29;20025;-88
2022/12/28 12:02:59;;;;;;;42.95;18.65;;;;;;;3.50;63.09;98925.25;4876294;29;20140;-88
2022/12/28 12:05:36;;;;;;;43.63;18.45;;;;;;;3.48;63.61;98938.25;4886116;29;20045;-91
2022/12/28 12:08:12;;;;;;;44.25;16.98;;;;;;;3.53;63.78;98946.34;4889412;29;20163;-93
2022/12/28 12:10:43;;;;;;;38.10;18.70;;;;;;;3.55;64.05;98946.06;4868774;29;20041;-91
2022/12/28 12:13:43;;;;;;;37.65;17.77;;;;;;;2.93;64.32;98886.00;4872179;29;20105;-92
2022/12/28 12:16:30;;;;;;;48.60;19.40;;;;;;;3.16;64.70;98922.41;4883355;29;20048;-93
2022/12/28 12:18:58;;;;;;;34.90;17.73;;;;;;;2.77;64.53;98858.22;4860739;29;20028;-92
2022/12/28 12:22:15;;;;;;;39.45;18.00;;;;;;;3.53;64.46;98963.34;4903528;29;20132;-91
2022/12/28 12:24:48;;;;;;;38.75;16.40;;;;;;;3.14;65.05;98955.06;4885997;29;20041;-91
2022/12/28 12:27:35;;;;;;;34.53;18.27;;;;;;;3.06;65.78;98972.66;4857004;29;20054;-94
2022/12/28 12:30:20;;;;;;;34.50;18.00;;;;;;;2.58;66.04;98871.47;4872898;29;20049;-94
2022/12/28 12:33:13;;;;;;;36.75;17.65;;;;;;;3.20;65.13;98942.38;4861631;29;20049;-91